createdAt,value
2022-07-25T00:01:16.998Z,13.40
2022-07-25T00:06:23.935Z,13.40
2022-07-25T00:11:27.256Z,13.40
2022-07-25T00:16:30.458Z,13.30
2022-07-25T00:21:33.653Z,13.30
2022-07-25T00:26:40.332Z,13.30
2022-07-25T00:31:44.108Z,13.20
2022-07-25T00:36:47.312Z,13.20
2022-07-25T00:41:50.315Z,13.10
2022-07-25T00:46:54.881Z,13.10
2022-07-25T00:51:58.931Z,13.00
2022-07-25T00:57:02.231Z,13.00
2022-07-25T01:02:05.380Z,12.90
2022-07-25T01:07:08.793Z,12.80
2022-07-25T01:12:11.891Z,12.80
2022-07-25T01:17:14.931Z,12.80
2022-07-25T01:22:18.390Z,12.70
2022-07-25T01:27:21.271Z,12.70
2022-07-25T01:32:24.579Z,12.70
2022-07-25T01:37:27.933Z,12.60
2022-07-25T01:42:30.891Z,12.50
2022-07-25T01:47:34.633Z,12.50
2022-07-25T01:52:38.260Z,12.40
2022-07-25T01:57:49.453Z,12.30
2022-07-25T02:03:13.188Z,12.20
2022-07-25T02:08:16.469Z,12.20
2022-07-25T02:13:20.370Z,12.20
2022-07-25T02:18:23.670Z,12.10
2022-07-25T02:23:26.632Z,12.10
2022-07-25T02:28:29.912Z,12.10
2022-07-25T02:33:33.012Z,12.10
2022-07-25T02:38:35.985Z,12.10
2022-07-25T02:43:39.282Z,12.00
2022-07-25T02:48:42.579Z,12.00
2022-07-25T02:54:01.170Z,12.00
2022-07-25T02:59:04.601Z,12.00
2022-07-25T03:04:07.796Z,12.00
2022-07-25T03:09:11.571Z,12.00
2022-07-25T03:14:14.505Z,12.00
2022-07-25T03:19:18.032Z,12.00
2022-07-25T03:24:20.951Z,12.00
2022-07-25T03:29:23.903Z,12.00
2022-07-25T03:34:27.232Z,12.10
2022-07-25T03:39:30.651Z,12.10
2022-07-25T03:44:33.651Z,12.20
2022-07-25T03:49:36.851Z,12.30
2022-07-25T03:54:41.762Z,12.40
2022-07-25T03:59:45.106Z,12.60
2022-07-25T04:04:48.154Z,13.10
2022-07-25T04:09:51.550Z,13.50
2022-07-25T04:14:54.579Z,13.70
2022-07-25T04:19:57.791Z,13.70
2022-07-25T04:25:01.071Z,13.80
2022-07-25T04:30:04.450Z,13.90
2022-07-25T04:35:08.253Z,13.90
2022-07-25T04:40:12.069Z,14.10
2022-07-25T04:45:17.791Z,14.20
2022-07-25T04:50:24.821Z,15.00
2022-07-25T04:55:28.391Z,16.20
2022-07-25T05:00:32.421Z,17.10
2022-07-25T05:05:36.126Z,17.90
2022-07-25T05:10:39.370Z,18.50
2022-07-25T05:15:42.574Z,18.80
2022-07-25T05:20:46.151Z,18.70
2022-07-25T05:25:49.924Z,19.00
2022-07-25T05:30:54.411Z,19.00
2022-07-25T05:35:57.562Z,19.00
2022-07-25T05:41:00.534Z,18.90
2022-07-25T05:46:05.209Z,19.00
2022-07-25T05:51:08.172Z,18.90
2022-07-25T05:56:11.611Z,18.80
2022-07-25T06:01:16.462Z,18.90
2022-07-25T06:06:19.950Z,19.00
2022-07-25T06:11:22.920Z,19.30
2022-07-25T06:16:26.770Z,19.60
2022-07-25T06:21:30.011Z,19.80
2022-07-25T06:26:33.152Z,20.00
2022-07-25T06:31:36.210Z,20.40
2022-07-25T06:36:39.414Z,20.70
2022-07-25T06:41:43.030Z,21.10
2022-07-25T06:46:46.492Z,21.40
2022-07-25T06:51:50.169Z,21.80
2022-07-25T06:56:53.110Z,22.10
2022-07-25T07:01:56.542Z,22.40
2022-07-25T07:06:59.727Z,22.60
2022-07-25T07:12:03.473Z,22.70
2022-07-25T07:18:00.547Z,23.00
2022-07-25T07:23:03.834Z,23.30
2022-07-25T07:28:07.616Z,23.40
2022-07-25T07:33:11.015Z,23.90
2022-07-25T07:38:14.110Z,24.40
2022-07-25T07:43:17.056Z,24.70
2022-07-25T07:48:20.352Z,25.00
2022-07-25T07:53:23.678Z,25.20
2022-07-25T07:58:26.808Z,25.10
2022-07-25T08:03:29.930Z,25.40
2022-07-25T08:08:33.631Z,25.40
2022-07-25T08:13:43.050Z,25.50
2022-07-25T08:18:46.252Z,25.70
2022-07-25T08:23:52.571Z,26.10
2022-07-25T08:29:17.116Z,26.20
2022-07-25T08:34:22.148Z,26.40
2022-07-25T08:39:25.761Z,26.70
2022-07-25T08:44:33.929Z,26.80
2022-07-25T08:49:37.212Z,26.90
2022-07-25T08:54:41.159Z,27.10
2022-07-25T08:59:45.231Z,27.30
2022-07-25T09:04:54.232Z,27.60
2022-07-25T09:09:58.070Z,27.80
2022-07-25T09:15:01.149Z,27.70
2022-07-25T09:20:08.823Z,27.90
2022-07-25T09:25:31.573Z,28.20
2022-07-25T09:30:36.251Z,28.50
2022-07-25T09:35:41.123Z,28.60
2022-07-25T09:40:58.449Z,28.60
2022-07-25T09:46:02.571Z,28.70
2022-07-25T09:51:06.900Z,28.60
2022-07-25T09:56:10.129Z,28.90
2022-07-25T10:01:19.663Z,29.20
2022-07-25T10:06:37.810Z,29.40
2022-07-25T10:11:41.710Z,28.90
2022-07-25T10:16:49.293Z,28.60
2022-07-25T10:21:56.290Z,29.00
2022-07-25T10:27:22.551Z,29.40
2022-07-25T10:32:33.112Z,29.60
2022-07-25T10:37:37.794Z,29.70
2022-07-25T10:42:46.950Z,29.70
2022-07-25T10:47:56.271Z,30.00
2022-07-25T10:53:01.093Z,30.30
2022-07-25T10:58:17.526Z,30.60
2022-07-25T11:03:22.281Z,30.50
2022-07-25T11:08:34.870Z,30.50
2022-07-25T11:13:39.958Z,30.50
2022-07-25T11:18:43.422Z,30.60
2022-07-25T11:23:54.086Z,30.80
2022-07-25T11:28:57.273Z,30.90
2022-07-25T11:34:00.598Z,30.90
2022-07-25T11:39:04.353Z,31.20
2022-07-25T11:44:08.451Z,31.30
2022-07-25T11:49:12.998Z,31.50
2022-07-25T11:54:17.016Z,31.60
2022-07-25T11:59:20.169Z,31.60
2022-07-25T12:04:23.358Z,31.90
2022-07-25T12:09:26.562Z,31.90
2022-07-25T12:14:35.125Z,32.10
2022-07-25T12:19:41.477Z,32.00
2022-07-25T12:24:44.614Z,31.60
2022-07-25T12:29:47.768Z,31.80
2022-07-25T12:34:51.711Z,31.80
2022-07-25T12:39:55.510Z,31.80
2022-07-25T12:44:58.963Z,31.80
2022-07-25T12:50:02.483Z,32.20
2022-07-25T12:55:10.933Z,32.20
2022-07-25T13:00:16.898Z,32.40
2022-07-25T13:05:20.903Z,32.30
2022-07-25T13:10:24.646Z,32.40
2022-07-25T13:15:28.577Z,32.10
2022-07-25T13:20:35.803Z,32.30
2022-07-25T13:25:38.711Z,32.60
2022-07-25T13:30:41.610Z,32.60
2022-07-25T13:35:45.147Z,32.70
2022-07-25T13:40:48.290Z,32.70
2022-07-25T13:45:51.471Z,32.50
2022-07-25T13:50:54.803Z,32.40
2022-07-25T13:55:59.659Z,32.10
2022-07-25T14:01:03.078Z,32.20
2022-07-25T14:06:09.299Z,32.50
2022-07-25T14:11:12.442Z,32.30
2022-07-25T14:16:17.773Z,32.30
2022-07-25T14:21:20.911Z,32.70
2022-07-25T14:26:24.433Z,32.70
2022-07-25T14:31:27.773Z,32.80
2022-07-25T14:36:33.990Z,32.80
2022-07-25T14:41:46.773Z,32.90
2022-07-25T14:47:01.963Z,33.00
2022-07-25T14:52:07.391Z,33.50
2022-07-25T14:57:10.991Z,33.80
2022-07-25T15:02:14.571Z,33.70
2022-07-25T15:07:17.730Z,34.10
2022-07-25T15:12:21.431Z,34.20
2022-07-25T15:17:25.040Z,33.70
2022-07-25T15:22:28.432Z,33.50
2022-07-25T15:27:32.454Z,33.80
2022-07-25T15:32:35.555Z,34.10
2022-07-25T15:37:38.731Z,34.30
2022-07-25T15:42:44.770Z,34.30
2022-07-25T15:47:55.106Z,34.30
2022-07-25T15:52:59.152Z,34.80
2022-07-25T15:58:03.958Z,34.40
2022-07-25T16:03:08.152Z,34.00
2022-07-25T16:08:11.514Z,33.60
2022-07-25T16:13:14.952Z,33.90
2022-07-25T16:18:18.549Z,34.40
2022-07-25T16:23:23.494Z,34.10
2022-07-25T16:28:27.390Z,34.00
2022-07-25T16:33:30.928Z,33.70
2022-07-25T16:38:35.225Z,33.50
2022-07-25T16:43:38.451Z,33.80
2022-07-25T16:48:42.186Z,33.70
2022-07-25T16:53:45.191Z,32.90
2022-07-25T16:58:49.290Z,32.50
2022-07-25T17:03:54.838Z,32.00
2022-07-25T17:08:59.055Z,31.40
2022-07-25T17:14:04.939Z,31.60
2022-07-25T17:19:08.539Z,31.70
2022-07-25T17:24:12.110Z,31.90
2022-07-25T17:29:17.678Z,31.80
2022-07-25T17:34:22.212Z,31.60
2022-07-25T17:39:26.519Z,31.30
2022-07-25T17:44:29.592Z,30.70
2022-07-25T17:49:32.691Z,30.40
2022-07-25T17:54:36.238Z,30.00
2022-07-25T17:59:39.371Z,29.40
2022-07-25T18:04:42.395Z,29.10
2022-07-25T18:09:45.785Z,28.90
2022-07-25T18:14:48.973Z,28.60
2022-07-25T18:19:52.312Z,28.40
2022-07-25T18:24:55.550Z,28.10
2022-07-25T18:29:58.770Z,27.90
2022-07-25T18:35:01.954Z,27.70
2022-07-25T18:40:07.289Z,27.50
2022-07-25T18:45:11.252Z,27.30
2022-07-25T18:50:14.494Z,27.00
2022-07-25T18:55:17.697Z,26.70
2022-07-25T19:00:20.831Z,26.60
2022-07-25T19:05:23.866Z,26.40
2022-07-25T19:10:27.371Z,26.20
2022-07-25T19:15:30.722Z,26.00
2022-07-25T19:20:34.995Z,25.80
2022-07-25T19:25:39.031Z,25.60
2022-07-25T19:30:42.075Z,25.50
2022-07-25T19:35:47.470Z,25.30
2022-07-25T19:40:50.950Z,25.00
2022-07-25T19:45:54.241Z,24.80
2022-07-25T19:50:57.555Z,24.70
2022-07-25T19:56:01.841Z,24.40
2022-07-25T20:01:05.029Z,24.00
2022-07-25T20:06:08.936Z,23.70
2022-07-25T20:11:12.525Z,23.50
2022-07-25T20:16:16.259Z,23.50
2022-07-25T20:21:19.972Z,23.40
2022-07-25T20:26:23.431Z,23.40
2022-07-25T20:31:27.341Z,23.50
2022-07-25T20:36:32.373Z,23.50
2022-07-25T20:41:39.643Z,23.50
2022-07-25T20:46:45.124Z,23.50
2022-07-25T20:51:54.696Z,23.40
2022-07-25T20:56:59.822Z,23.30
2022-07-25T21:02:04.650Z,23.20
2022-07-25T21:07:08.986Z,23.10
2022-07-25T21:12:14.493Z,23.00
2022-07-25T21:17:17.884Z,23.00
2022-07-25T21:22:22.505Z,22.90
2022-07-25T21:27:26.203Z,22.80
2022-07-25T21:32:30.444Z,22.80
2022-07-25T21:37:33.932Z,22.80
2022-07-25T21:42:37.671Z,22.70
2022-07-25T21:47:40.682Z,22.70
2022-07-25T21:52:44.042Z,22.60
2022-07-25T21:57:48.957Z,22.50
2022-07-25T22:02:52.252Z,22.50
2022-07-25T22:07:55.407Z,22.50
2022-07-25T22:12:58.499Z,22.40
2022-07-25T22:18:02.002Z,22.20
2022-07-25T22:23:05.145Z,22.20
2022-07-25T22:28:14.120Z,22.10
2022-07-25T22:33:17.683Z,22.00
2022-07-25T22:38:21.171Z,21.90
2022-07-25T22:43:24.471Z,21.90
2022-07-25T22:48:48.246Z,21.80
2022-07-25T22:53:51.760Z,21.80
2022-07-25T22:58:55.081Z,21.70
2022-07-25T23:03:58.566Z,21.70
2022-07-25T23:09:02.056Z,21.70
2022-07-25T23:14:05.402Z,21.70
2022-07-25T23:19:08.846Z,21.70
2022-07-25T23:24:12.481Z,21.60
2022-07-25T23:29:15.961Z,21.50
2022-07-25T23:34:19.157Z,21.50
2022-07-25T23:39:22.453Z,21.40
2022-07-25T23:44:26.491Z,21.40
2022-07-25T23:49:32.291Z,21.40
2022-07-25T23:54:35.848Z,21.30
2022-07-25T23:59:39.159Z,21.40
